createdAt,value
2022-12-31T00:08:23.742Z,2
2022-12-31T00:09:23.749Z,2
2022-12-31T00:10:23.755Z,3
2022-12-31T00:11:23.770Z,2
2022-12-31T00:12:23.751Z,4
2022-12-31T00:13:23.755Z,2
2022-12-31T00:14:23.756Z,4
2022-12-31T00:15:23.762Z,3
2022-12-31T00:16:23.840Z,2
2022-12-31T00:17:23.803Z,3
2022-12-31T00:18:23.745Z,2
2022-12-31T00:19:23.758Z,2
2022-12-31T00:20:23.755Z,3
2022-12-31T00:21:23.752Z,2
2022-12-31T00:22:23.783Z,3
2022-12-31T00:23:23.743Z,3
2022-12-31T00:24:23.746Z,5
2022-12-31T00:25:23.747Z,4
2022-12-31T00:26:23.744Z,3
2022-12-31T00:27:23.744Z,3
2022-12-31T00:28:23.747Z,3
2022-12-31T00:29:23.745Z,4
2022-12-31T00:30:23.758Z,3
2022-12-31T00:31:23.838Z,3
2022-12-31T00:32:23.747Z,5
2022-12-31T00:33:23.751Z,4
2022-12-31T00:34:23.811Z,3
2022-12-31T00:35:23.747Z,4
2022-12-31T00:36:23.763Z,4
2022-12-31T00:37:23.751Z,4
2022-12-31T00:38:23.750Z,3
2022-12-31T00:39:23.819Z,3
2022-12-31T00:40:23.745Z,5
2022-12-31T00:41:23.745Z,2
2022-12-31T00:42:23.742Z,2
2022-12-31T00:43:23.746Z,4
2022-12-31T00:44:23.756Z,3
2022-12-31T00:45:23.766Z,2
2022-12-31T00:46:23.849Z,4
2022-12-31T06:40:23.833Z,5
2022-12-31T09:05:23.879Z,6
2022-12-31T09:29:23.879Z,5
2022-12-31T12:49:23.940Z,9
2022-12-31T12:50:23.927Z,10
2022-12-31T12:55:23.927Z,10
2022-12-31T12:57:23.928Z,7
2022-12-31T12:59:23.937Z,8
2022-12-31T13:05:28.046Z,10
2022-12-31T13:10:23.928Z,9
2022-12-31T19:17:24.033Z,8
